Slocum, Texas
Current Conditions -  °F | °C
As of 1:15 PM on Sunday 21 Dec 2014 (Local Time) from KPSN Reporting Station
Overcast Overcast  
Wind Chill: 52°   Ceiling: 1800
Heat Index: 52°   Visibility: 10mi
Dew Point: 46°   Wind: 5mph
Humidity: 80%   Direction: 150°SSE
Pressure: 30.02"   Gusts: NA
Location:  31.6239°N, 95.528°W
Report Text: KPSN 211915Z AUTO 15004KT 10SM OVC018 11/07 A3002 RMK AO2 T01110078
Loading
Personal Weather Stations






























Interactive Weather Map New forecast layout! Learn more

10-Day Weather Forecast

Advertisements
Track Severe Weather on mobile